Time;durP1;ratioP1;P1;durP2;ratioP2;P2;SDS_P1;SDS_P2;PMS_P1;PMS_P2;Temp;Humidity;BMP_temperature;BMP_pressure;BME280_temperature;BME280_humidity;BME280_pressure;Samples;Min_cycle;Max_cycle;Signal;HPM_P1;HPM_P2
2022/06/07 00:02:15;;;;;;;5.37;2.70;;;;;;;;;;5086341;28;20125;-75
2022/06/07 00:04:42;;;;;;;4.90;2.37;;;;;;;;;;5087218;28;20028;-76
2022/06/07 00:07:09;;;;;;;4.77;2.90;;;;;;;;;;5091899;28;20020;-76
2022/06/07 00:09:37;;;;;;;6.57;2.80;;;;;;;;;;5091889;28;20020;-75
2022/06/07 00:12:03;;;;;;;3.63;2.27;;;;;;;;;;5091336;28;20032;-75
2022/06/07 00:14:32;;;;;;;7.00;2.47;;;;;;;;;;5091972;28;20378;-75
2022/06/07 00:16:59;;;;;;;7.53;2.67;;;;;;;;;;5094284;28;20383;-75
2022/06/07 00:19:25;;;;;;;11.27;3.37;;;;;;;;;;5090396;28;20028;-75
2022/06/07 00:21:52;;;;;;;6.53;2.70;;;;;;;;;;5090404;28;20104;-75
2022/06/07 00:24:19;;;;;;;9.67;3.10;;;;;;;;;;5089845;28;20021;-74
2022/06/07 00:26:46;;;;;;;6.67;2.70;;;;;;;;;;5090082;28;20081;-75
2022/06/07 00:29:13;;;;;;;6.80;2.63;;;;;;;;;;5094907;28;20069;-75
2022/06/07 00:31:40;;;;;;;5.47;2.77;;;;;;;;;;5095424;28;20081;-75
2022/06/07 00:34:07;;;;;;;6.37;2.73;;;;;;;;;;5095397;28;20024;-75
2022/06/07 00:36:35;;;;;;;9.00;2.60;;;;;;;;;;5094665;28;20035;-75
2022/06/07 00:39:01;;;;;;;9.80;3.33;;;;;;;;;;5095150;28;20621;-75
2022/06/07 00:41:28;;;;;;;8.50;2.67;;;;;;;;;;5089981;28;20039;-75
2022/06/07 00:44:33;;;;;;;10.20;2.93;;;;;;;;;;5089940;28;20016;-75
2022/06/07 00:47:08;;;;;;;5.70;2.80;;;;;;;;;;5026357;28;20041;-75
2022/06/07 00:49:47;;;;;;;6.57;2.90;;;;;;;;;;5027808;28;20030;-75
2022/06/07 00:52:14;;;;;;;5.97;2.50;;;;;;;;;;5070928;28;20040;-75
2022/06/07 00:54:41;;;;;;;10.43;2.87;;;;;;;;;;5095038;28;20512;-75
2022/06/07 00:57:08;;;;;;;8.23;3.27;;;;;;;;;;5094823;28;20497;-74
2022/06/07 00:59:35;;;;;;;9.23;2.80;;;;;;;;;;5094828;28;20024;-73
2022/06/07 01:02:02;;;;;;;6.50;2.60;;;;;;;;;;5092824;28;20483;-74
2022/06/07 01:04:29;;;;;;;5.93;2.70;;;;;;;;;;5088096;28;20016;-74
2022/06/07 01:12:26;;;;;;;;;;;;;;;;;;5091796;28;20043;-74
2022/06/07 01:14:52;;;;;;;6.53;2.93;;;;;;;;;;5094145;28;19920;-75
2022/06/07 01:17:19;;;;;;;11.37;4.60;;;;;;;;;;5093369;28;20040;-75
2022/06/07 01:19:46;;;;;;;9.23;3.67;;;;;;;;;;5094289;28;20390;-75
2022/06/07 01:22:13;;;;;;;6.10;4.00;;;;;;;;;;5094350;28;20035;-74
2022/06/07 01:24:41;;;;;;;7.57;3.60;;;;;;;;;;5092307;28;20028;-75
2022/06/07 01:27:08;;;;;;;5.50;3.27;;;;;;;;;;5088262;28;20055;-74
2022/06/07 01:29:36;;;;;;;9.23;4.10;;;;;;;;;;5088904;28;20032;-75
2022/06/07 01:32:03;;;;;;;4.80;3.27;;;;;;;;;;5088866;28;20028;-74
2022/06/07 01:34:30;;;;;;;8.93;3.90;;;;;;;;;;5089453;28;20437;-75
2022/06/07 01:36:57;;;;;;;8.87;3.77;;;;;;;;;;5093859;28;20040;-74
2022/06/07 01:42:11;;;;;;;7.40;4.00;;;;;;;;;;5093876;28;20505;-74
2022/06/07 01:44:41;;;;;;;6.13;3.73;;;;;;;;;;5094088;28;20024;-74
2022/06/07 01:47:10;;;;;;;6.27;3.73;;;;;;;;;;5091995;28;20031;-74
2022/06/07 01:49:37;;;;;;;8.40;3.63;;;;;;;;;;5088565;28;20047;-75
2022/06/07 01:52:05;;;;;;;6.10;4.47;;;;;;;;;;5088476;28;20062;-75
2022/06/07 01:54:31;;;;;;;7.07;3.60;;;;;;;;;;5088469;28;20040;-74
2022/06/07 01:56:58;;;;;;;6.47;4.10;;;;;;;;;;5089134;28;20043;-74
2022/06/07 01:59:25;;;;;;;5.60;3.70;;;;;;;;;;5093791;28;20104;-74
2022/06/07 02:01:52;;;;;;;9.20;3.80;;;;;;;;;;5093125;28;20070;-74
2022/06/07 02:04:22;;;;;;;5.90;3.53;;;;;;;;;;5093677;28;20028;-74
2022/06/07 02:06:49;;;;;;;7.93;3.60;;;;;;;;;;5093238;28;20481;-74
2022/06/07 02:09:17;;;;;;;5.60;3.17;;;;;;;;;;5092031;28;20016;-74
2022/06/07 02:11:44;;;;;;;9.27;3.00;;;;;;;;;;5088103;28;20031;-74
2022/06/07 02:14:11;;;;;;;4.57;2.67;;;;;;;;;;5087953;28;20024;-74
2022/06/07 02:16:38;;;;;;;7.50;2.90;;;;;;;;;;5088082;28;20043;-75
2022/06/07 02:19:05;;;;;;;7.30;3.30;;;;;;;;;;5088008;28;20548;-77
2022/06/07 02:21:32;;;;;;;6.93;3.03;;;;;;;;;;5092627;28;20379;-76
2022/06/07 02:23:59;;;;;;;8.70;2.73;;;;;;;;;;5093177;28;20111;-74
2022/06/07 02:26:28;;;;;;;8.17;3.50;;;;;;;;;;5093229;28;20055;-74
2022/06/07 02:28:58;;;;;;;13.43;4.30;;;;;;;;;;5093273;28;20024;-74
2022/06/07 02:31:26;;;;;;;8.00;3.80;;;;;;;;;;5091896;28;20506;-74
2022/06/07 02:33:54;;;;;;;6.13;2.93;;;;;;;;;;5087085;28;20085;-75
2022/06/07 02:36:20;;;;;;;6.50;3.00;;;;;;;;;;5087342;28;20157;-74
2022/06/07 02:38:47;;;;;;;6.67;2.93;;;;;;;;;;5086667;28;20040;-74
2022/06/07 02:41:18;;;;;;;4.80;2.60;;;;;;;;;;5087584;28;20038;-74
2022/06/07 02:43:45;;;;;;;8.60;3.80;;;;;;;;;;5092789;28;20012;-74
2022/06/07 02:46:12;;;;;;;4.23;2.70;;;;;;;;;;5092903;28;20027;-74
2022/06/07 02:48:39;;;;;;;5.57;3.00;;;;;;;;;;5092662;28;20034;-74
2022/06/07 02:51:05;;;;;;;7.27;2.40;;;;;;;;;;5092052;28;20017;-74
2022/06/07 02:53:32;;;;;;;4.20;2.30;;;;;;;;;;5092578;28;20500;-74
2022/06/07 02:55:59;;;;;;;8.90;3.20;;;;;;;;;;5087310;28;20024;-74
2022/06/07 02:58:27;;;;;;;6.50;3.30;;;;;;;;;;5086813;28;20036;-74
2022/06/07 03:00:55;;;;;;;8.23;3.40;;;;;;;;;;5087293;28;20031;-74
2022/06/07 03:03:22;;;;;;;6.80;3.53;;;;;;;;;;5087139;28;20016;-74
2022/06/07 03:05:49;;;;;;;10.87;4.37;;;;;;;;;;5091195;28;20020;-74
2022/06/07 03:08:18;;;;;;;8.17;4.50;;;;;;;;;;5092345;28;20028;-74
2022/06/07 03:10:46;;;;;;;8.00;4.17;;;;;;;;;;5092620;28;20474;-74
2022/06/07 03:13:13;;;;;;;5.50;3.77;;;;;;;;;;5092311;28;20028;-74
2022/06/07 03:15:43;;;;;;;10.03;4.50;;;;;;;;;;5092473;28;20028;-73
2022/06/07 03:18:10;;;;;;;7.53;3.80;;;;;;;;;;5066616;28;20033;-74
2022/06/07 03:20:37;;;;;;;9.17;3.93;;;;;;;;;;5066762;28;20738;-73
2022/06/07 03:23:04;;;;;;;9.60;4.97;;;;;;;;;;5073611;28;21770;-73
2022/06/07 03:25:31;;;;;;;6.07;3.57;;;;;;;;;;5086617;28;20038;-74
2022/06/07 03:27:59;;;;;;;7.37;3.37;;;;;;;;;;5091609;28;20366;-74
2022/06/07 03:30:25;;;;;;;7.90;3.40;;;;;;;;;;5090929;28;20040;-74
2022/06/07 03:32:52;;;;;;;7.13;3.90;;;;;;;;;;5092066;28;20036;-74
2022/06/07 03:35:19;;;;;;;6.90;3.07;;;;;;;;;;5092299;28;20031;-74
2022/06/07 03:37:45;;;;;;;7.53;3.33;;;;;;;;;;5092062;28;20039;-74
2022/06/07 03:40:14;;;;;;;7.27;2.60;;;;;;;;;;5087169;28;20070;-74
2022/06/07 03:42:41;;;;;;;8.47;3.33;;;;;;;;;;5086672;28;20512;-74
2022/06/07 03:45:08;;;;;;;9.43;3.73;;;;;;;;;;5086881;28;20497;-74
2022/06/07 03:47:37;;;;;;;7.97;4.00;;;;;;;;;;5086770;28;20089;-73
2022/06/07 03:50:04;;;;;;;14.70;4.37;;;;;;;;;;5090647;28;20039;-74
2022/06/07 03:52:30;;;;;;;5.77;3.90;;;;;;;;;;5096349;28;20058;-73
2022/06/07 03:54:57;;;;;;;5.97;3.10;;;;;;;;;;5095467;28;20082;-74
2022/06/07 03:57:24;;;;;;;7.60;3.53;;;;;;;;;;5096037;28;20442;-74
2022/06/07 03:59:51;;;;;;;5.30;2.97;;;;;;;;;;5096268;28;20541;-74
2022/06/07 04:02:17;;;;;;;10.53;3.67;;;;;;;;;;5091949;28;20056;-74
2022/06/07 04:04:44;;;;;;;7.03;3.47;;;;;;;;;;5090780;28;20093;-74
2022/06/07 04:09:55;;;;;;;12.30;3.80;;;;;;;;;;5090328;28;20058;-74
2022/06/07 04:12:22;;;;;;;7.60;3.50;;;;;;;;;;5093720;28;20525;-74
2022/06/07 04:14:49;;;;;;;7.20;3.17;;;;;;;;;;5095971;28;20069;-74
2022/06/07 04:17:15;;;;;;;6.37;3.37;;;;;;;;;;5095669;28;20036;-74
2022/06/07 04:19:43;;;;;;;6.17;3.50;;;;;;;;;;5095398;28;20394;-73
2022/06/07 04:22:11;;;;;;;5.67;3.53;;;;;;;;;;5077492;28;20356;-73
2022/06/07 04:24:38;;;;;;;7.57;3.90;;;;;;;;;;5091862;28;20532;-73
2022/06/07 04:27:05;;;;;;;7.93;3.57;;;;;;;;;;5089900;28;20105;-74
2022/06/07 04:29:31;;;;;;;10.33;3.83;;;;;;;;;;5089938;28;20035;-73
2022/06/07 04:31:58;;;;;;;5.87;3.30;;;;;;;;;;5089883;28;20020;-73
2022/06/07 04:34:25;;;;;;;9.83;3.73;;;;;;;;;;5093056;28;20020;-73
2022/06/07 04:36:52;;;;;;;11.20;3.90;;;;;;;;;;5095244;28;20032;-74
2022/06/07 04:39:18;;;;;;;6.87;3.33;;;;;;;;;;5095346;28;20024;-74
2022/06/07 04:41:45;;;;;;;5.50;2.73;;;;;;;;;;5095221;28;20024;-73
2022/06/07 04:44:12;;;;;;;15.13;8.07;;;;;;;;;;5094589;28;20467;-74
2022/06/07 04:46:38;;;;;;;10.53;4.80;;;;;;;;;;5092382;28;20020;-74
2022/06/07 04:49:05;;;;;;;8.50;3.77;;;;;;;;;;5089856;28;20032;-73
2022/06/07 04:51:34;;;;;;;7.23;3.50;;;;;;;;;;5089821;28;20031;-74
2022/06/07 04:54:01;;;;;;;7.07;3.90;;;;;;;;;;5085424;28;20022;-72
2022/06/07 04:56:29;;;;;;;8.23;3.63;;;;;;;;;;5075068;28;20039;-70
2022/06/07 04:58:57;;;;;;;6.17;3.57;;;;;;;;;;5075107;28;20020;-73
2022/06/07 05:01:34;;;;;;;9.83;4.00;;;;;;;;;;5094347;28;20024;-69
2022/06/07 05:04:00;;;;;;;9.63;3.93;;;;;;;;;;5090376;28;20032;-70
2022/06/07 05:06:29;;;;;;;10.27;3.47;;;;;;;;;;5094903;28;20016;-80
2022/06/07 05:08:58;;;;;;;10.60;3.77;;;;;;;;;;5094576;28;20073;-70
2022/06/07 05:11:58;;;;;;;;;;;;;;;;;;;;;
2022/06/07 05:14:44;;;;;;;8.20;3.40;;;;;;;;;;5087256;28;20028;-71
2022/06/07 05:17:11;;;;;;;5.90;4.15;;;;;;;;;;5087076;28;20522;-75
2022/06/07 05:19:38;;;;;;;4.37;3.00;;;;;;;;;;5079130;28;20075;-70
2022/06/07 05:22:05;;;;;;;6.43;4.30;;;;;;;;;;5091021;28;20017;-72
2022/06/07 05:24:32;;;;;;;7.07;3.27;;;;;;;;;;5092596;28;20178;-71
2022/06/07 05:27:03;;;;;;;9.97;3.57;;;;;;;;;;5094315;28;20348;-73
2022/06/07 05:29:35;;;;;;;4.73;3.67;;;;;;;;;;5081801;28;20475;-73
2022/06/07 05:32:02;;;;;;;11.80;3.57;;;;;;;;;;5070005;28;20025;-74
2022/06/07 05:34:29;;;;;;;5.87;4.03;;;;;;;;;;5087559;28;20024;-73
2022/06/07 05:36:56;;;;;;;10.47;4.47;;;;;;;;;;5068409;28;20036;-73
2022/06/07 05:39:24;;;;;;;5.90;3.73;;;;;;;;;;5068596;28;20032;-72
2022/06/07 05:41:52;;;;;;;8.70;3.50;;;;;;;;;;5071591;28;20032;-73
2022/06/07 05:44:19;;;;;;;5.93;3.87;;;;;;;;;;5076256;28;20066;-71
2022/06/07 05:46:47;;;;;;;5.80;4.00;;;;;;;;;;5092740;28;20020;-75
2022/06/07 05:49:14;;;;;;;5.10;3.60;;;;;;;;;;5092969;28;20528;-73
2022/06/07 05:51:41;;;;;;;6.67;4.67;;;;;;;;;;5093599;28;20509;-72
2022/06/07 05:54:07;;;;;;;6.17;3.43;;;;;;;;;;5090945;28;20103;-73
2022/06/07 05:56:35;;;;;;;5.77;3.87;;;;;;;;;;5088367;28;20097;-72
2022/06/07 05:59:01;;;;;;;5.03;3.80;;;;;;;;;;5087956;28;20016;-72
2022/06/07 06:01:28;;;;;;;5.33;3.70;;;;;;;;;;5088303;28;20471;-73
2022/06/07 06:03:55;;;;;;;7.10;3.30;;;;;;;;;;5088943;28;20020;-71
2022/06/07 06:06:22;;;;;;;5.13;3.37;;;;;;;;;;5093672;28;20025;-72
2022/06/07 06:11:34;;;;;;;7.85;4.10;;;;;;;;;;5093751;28;20126;-70
2022/06/07 06:14:01;;;;;;;6.10;4.00;;;;;;;;;;5092043;28;20073;-70
2022/06/07 06:16:28;;;;;;;4.83;3.67;;;;;;;;;;5090446;28;20039;-73
2022/06/07 06:18:56;;;;;;;6.83;3.90;;;;;;;;;;5088291;28;20475;-71
2022/06/07 06:21:24;;;;;;;5.20;3.87;;;;;;;;;;5087627;28;20032;-75
2022/06/07 06:23:51;;;;;;;10.17;4.30;;;;;;;;;;5087633;28;20031;-72
2022/06/07 06:26:18;;;;;;;6.90;3.67;;;;;;;;;;5084979;28;20069;-72
2022/06/07 06:28:45;;;;;;;6.63;4.30;;;;;;;;;;5072968;28;20119;-71
2022/06/07 06:31:13;;;;;;;9.17;3.83;;;;;;;;;;5092306;28;20503;-73
2022/06/07 06:33:40;;;;;;;6.17;3.80;;;;;;;;;;5093193;28;20024;-72
2022/06/07 06:36:08;;;;;;;8.23;3.83;;;;;;;;;;5092973;28;20054;-74
2022/06/07 06:38:35;;;;;;;5.70;4.20;;;;;;;;;;5090634;28;20514;-69
2022/06/07 06:41:20;;;;;;;15.47;4.10;;;;;;;;;;5087242;28;20179;-71
2022/06/07 06:43:48;;;;;;;9.73;4.10;;;;;;;;;;5087820;28;20501;-70
2022/06/07 06:46:21;;;;;;;11.37;4.50;;;;;;;;;;5087542;28;20035;-70
2022/06/07 06:48:47;;;;;;;9.53;4.57;;;;;;;;;;5089923;28;20016;-70
2022/06/07 06:51:15;;;;;;;6.47;3.90;;;;;;;;;;5092456;28;20039;-68
2022/06/07 06:53:43;;;;;;;6.43;4.17;;;;;;;;;;5072491;28;20021;-75
2022/06/07 06:56:11;;;;;;;6.03;4.20;;;;;;;;;;5072623;28;20028;-70
2022/06/07 06:58:38;;;;;;;7.13;3.67;;;;;;;;;;5072439;28;20021;-74
2022/06/07 07:01:05;;;;;;;7.07;4.00;;;;;;;;;;5072456;28;20025;-69
2022/06/07 07:03:33;;;;;;;5.27;3.70;;;;;;;;;;5078786;28;20031;-70
2022/06/07 07:06:01;;;;;;;6.23;3.50;;;;;;;;;;5086833;28;20032;-73
2022/06/07 07:08:28;;;;;;;7.43;3.90;;;;;;;;;;5086854;28;20053;-75
2022/06/07 07:11:12;;;;;;;6.17;4.17;;;;;;;;;;5088633;28;20024;-73
2022/06/07 07:13:40;;;;;;;5.43;3.70;;;;;;;;;;5092356;28;20016;-74
2022/06/07 07:16:08;;;;;;;8.30;4.07;;;;;;;;;;5082819;28;20025;-78
2022/06/07 07:18:35;;;;;;;9.50;4.10;;;;;;;;;;5072255;28;20113;-78
2022/06/07 07:21:09;;;;;;;7.10;3.77;;;;;;;;;;5076542;28;20470;-78
2022/06/07 07:23:36;;;;;;;17.73;4.30;;;;;;;;;;5089556;28;20028;-78
2022/06/07 07:26:08;;;;;;;5.83;4.00;;;;;;;;;;5086237;28;20038;-78
2022/06/07 07:28:36;;;;;;;7.47;3.80;;;;;;;;;;5086668;28;20104;-78
2022/06/07 07:31:05;;;;;;;6.47;4.23;;;;;;;;;;5086769;28;20051;-78
2022/06/07 07:33:32;;;;;;;6.93;3.73;;;;;;;;;;5089016;28;20028;-78
2022/06/07 07:36:01;;;;;;;6.07;4.00;;;;;;;;;;5091524;28;20028;-78
2022/06/07 07:38:28;;;;;;;8.97;4.50;;;;;;;;;;5091877;28;20458;-78
2022/06/07 07:40:54;;;;;;;7.10;4.00;;;;;;;;;;5092139;28;20028;-78
2022/06/07 07:43:21;;;;;;;7.37;4.33;;;;;;;;;;5092231;28;20048;-79
2022/06/07 07:45:52;;;;;;;6.53;4.23;;;;;;;;;;5089367;28;20398;-79
2022/06/07 07:48:19;;;;;;;6.33;4.13;;;;;;;;;;5086551;28;20028;-79
2022/06/07 07:50:46;;;;;;;7.57;3.90;;;;;;;;;;5086317;28;20474;-78
2022/06/07 07:53:12;;;;;;;5.97;4.20;;;;;;;;;;5086574;28;20595;-78
2022/06/07 07:55:44;;;;;;;7.93;4.10;;;;;;;;;;5087537;28;20383;-78
2022/06/07 07:58:11;;;;;;;10.50;3.90;;;;;;;;;;5092027;28;20038;-78
2022/06/07 08:00:38;;;;;;;7.23;4.10;;;;;;;;;;5092006;28;20051;-78
2022/06/07 08:03:04;;;;;;;7.83;4.27;;;;;;;;;;5092039;28;20024;-78
2022/06/07 08:05:32;;;;;;;4.93;3.57;;;;;;;;;;5091751;28;20031;-77
2022/06/07 08:07:58;;;;;;;7.50;4.03;;;;;;;;;;5089643;28;20052;-78
2022/06/07 08:10:25;;;;;;;6.23;4.00;;;;;;;;;;5086217;28;20039;-79
2022/06/07 08:12:54;;;;;;;5.43;4.30;;;;;;;;;;5086161;28;20078;-79
2022/06/07 08:15:23;;;;;;;5.87;3.90;;;;;;;;;;5086433;28;20024;-79
2022/06/07 08:17:51;;;;;;;5.87;3.90;;;;;;;;;;5086948;28;20158;-79
2022/06/07 08:20:18;;;;;;;6.80;4.30;;;;;;;;;;5073588;28;20039;-79
2022/06/07 08:22:45;;;;;;;7.17;4.57;;;;;;;;;;5091451;28;20077;-79
2022/06/07 08:25:12;;;;;;;6.57;4.73;;;;;;;;;;5091725;28;20024;-78
2022/06/07 08:27:39;;;;;;;6.47;3.97;;;;;;;;;;5091233;28;20073;-79
2022/06/07 08:30:06;;;;;;;7.13;4.50;;;;;;;;;;5090319;28;20024;-78
2022/06/07 08:32:33;;;;;;;10.00;4.10;;;;;;;;;;5086055;28;20448;-78
2022/06/07 08:37:45;;;;;;;5.28;3.67;;;;;;;;;;5088445;28;20117;-79
2022/06/07 08:40:19;;;;;;;8.23;4.27;;;;;;;;;;5090835;28;20056;-79
2022/06/07 08:42:51;;;;;;;5.18;3.85;;;;;;;;;;5095241;28;20036;-78
2022/06/07 08:45:21;;;;;;;7.77;4.17;;;;;;;;;;5094969;28;20055;-78
2022/06/07 08:47:50;;;;;;;7.03;4.17;;;;;;;;;;5094556;28;20056;-78
2022/06/07 08:50:21;;;;;;;6.33;3.87;;;;;;;;;;5095146;28;20028;-78
2022/06/07 08:52:49;;;;;;;10.73;4.07;;;;;;;;;;5093001;28;20032;-78
2022/06/07 08:55:26;;;;;;;7.03;4.70;;;;;;;;;;5089078;28;20031;-78
2022/06/07 08:58:00;;;;;;;7.60;4.67;;;;;;;;;;5089357;28;20490;-79
2022/06/07 09:00:29;;;;;;;6.95;4.53;;;;;;;;;;5089362;28;20027;-78
2022/06/07 09:03:14;;;;;;;8.50;3.97;;;;;;;;;;5091490;28;20403;-79
2022/06/07 09:05:41;;;;;;;6.03;3.93;;;;;;;;;;5094372;28;20462;-79
2022/06/07 09:08:09;;;;;;;6.90;4.30;;;;;;;;;;5094977;28;20417;-78
2022/06/07 09:13:23;;;;;;;8.27;4.63;;;;;;;;;;5094742;28;20542;-78
2022/06/07 09:15:55;;;;;;;8.23;4.40;;;;;;;;;;5090562;28;20027;-78
2022/06/07 09:18:25;;;;;;;8.27;4.60;;;;;;;;;;5089050;28;20040;-79
2022/06/07 09:20:54;;;;;;;8.40;4.60;;;;;;;;;;5088535;28;20029;-78
2022/06/07 09:23:25;;;;;;;8.00;4.70;;;;;;;;;;5088975;28;20021;-79
2022/06/07 09:25:53;;;;;;;6.77;4.77;;;;;;;;;;5092271;28;20034;-78
2022/06/07 09:28:26;;;;;;;7.20;4.97;;;;;;;;;;5094515;28;20023;-79
2022/06/07 09:30:59;;;;;;;8.83;5.10;;;;;;;;;;5094270;28;20016;-77
2022/06/07 09:33:28;;;;;;;8.83;5.60;;;;;;;;;;5094065;28;20046;-79
2022/06/07 09:36:00;;;;;;;10.43;5.80;;;;;;;;;;5093923;28;20028;-78
2022/06/07 09:38:34;;;;;;;7.33;5.07;;;;;;;;;;5089306;28;20350;-79
2022/06/07 09:41:36;;;;;;;8.23;4.87;;;;;;;;;;5088494;28;20028;-78
2022/06/07 09:43:55;;;;;;;7.63;4.83;;;;;;;;;;5088003;28;20044;-79
2022/06/07 09:46:30;;;;;;;11.57;6.80;;;;;;;;;;5088019;28;20028;-79
2022/06/07 09:48:56;;;;;;;;;;;;;;;;;;5075925;28;20471;-79
2022/06/07 09:51:26;;;;;;;8.00;4.13;;;;;;;;;;5094122;28;19953;-78
2022/06/07 09:53:59;;;;;;;7.97;5.07;;;;;;;;;;5093876;28;20278;-79
2022/06/07 09:56:26;;;;;;;8.57;5.00;;;;;;;;;;5093494;28;20509;-78
2022/06/07 09:58:55;;;;;;;11.47;5.27;;;;;;;;;;5093856;28;20585;-78
2022/06/07 10:01:31;;;;;;;9.43;5.77;;;;;;;;;;5088146;28;20024;-79
2022/06/07 10:04:05;;;;;;;6.17;4.80;;;;;;;;;;5088261;28;20028;-78
2022/06/07 10:06:35;;;;;;;8.68;5.38;;;;;;;;;;5087740;28;20024;-78
2022/06/07 10:09:01;;;;;;;6.93;4.93;;;;;;;;;;5088072;28;20022;-79
2022/06/07 10:11:31;;;;;;;6.13;4.80;;;;;;;;;;5093500;28;20020;-79
2022/06/07 10:14:23;;;;;;;6.73;5.10;;;;;;;;;;5093449;28;20030;-78
2022/06/07 10:17:08;;;;;;;5.73;4.63;;;;;;;;;;5072558;28;20037;-79
2022/06/07 10:19:35;;;;;;;5.93;4.65;;;;;;;;;;5073145;28;20028;-79
2022/06/07 10:22:17;;;;;;;6.53;4.83;;;;;;;;;;5071120;28;20077;-79
2022/06/07 10:24:43;;;;;;;12.73;4.93;;;;;;;;;;5070379;28;20081;-78
2022/06/07 10:27:11;;;;;;;12.43;5.23;;;;;;;;;;5087599;28;20031;-78
2022/06/07 10:29:47;;;;;;;6.13;4.97;;;;;;;;;;5087475;28;20433;-77
2022/06/07 10:32:19;;;;;;;8.60;5.10;;;;;;;;;;5089646;28;20228;-79
2022/06/07 10:34:50;;;;;;;15.30;5.60;;;;;;;;;;5093229;28;20020;-77
2022/06/07 10:37:35;;;;;;;6.47;5.47;;;;;;;;;;5092999;28;20028;-78
2022/06/07 10:40:05;;;;;;;8.48;5.75;;;;;;;;;;5093127;28;20020;-78
2022/06/07 10:43:07;;;;;;;7.37;4.93;;;;;;;;;;5092468;28;20047;-78
2022/06/07 10:45:38;;;;;;;11.73;5.83;;;;;;;;;;4986241;28;20086;-79
2022/06/07 10:48:40;;;;;;;8.57;5.83;;;;;;;;;;5070446;28;20468;-78
2022/06/07 10:51:06;;;;;;;10.80;5.67;;;;;;;;;;5023931;28;20563;-78
2022/06/07 10:53:42;;;;;;;9.33;5.77;;;;;;;;;;5023996;28;20073;-79
2022/06/07 10:56:16;;;;;;;8.50;5.67;;;;;;;;;;5030500;28;20167;-78
2022/06/07 10:58:45;;;;;;;9.38;5.93;;;;;;;;;;5030308;28;20041;-79
2022/06/07 11:01:30;;;;;;;10.33;5.53;;;;;;;;;;5029976;28;20041;-78
2022/06/07 11:09:59;;;;;;;8.23;5.60;;;;;;;;;;4987049;28;20045;-78
2022/06/07 11:12:35;;;;;;;7.47;5.43;;;;;;;;;;5013248;28;20045;-78
2022/06/07 11:15:11;;;;;;;9.70;6.17;;;;;;;;;;5007271;28;20136;-78
2022/06/07 11:17:44;;;;;;;9.73;5.63;;;;;;;;;;5027842;28;20107;-77
2022/06/07 11:20:15;;;;;;;7.23;5.40;;;;;;;;;;5030134;28;20079;-78
2022/06/07 11:22:52;;;;;;;9.30;5.77;;;;;;;;;;5058724;28;20024;-78
2022/06/07 11:25:33;;;;;;;7.43;5.70;;;;;;;;;;5091951;28;20016;-78
2022/06/07 11:28:06;;;;;;;7.70;5.40;;;;;;;;;;5091443;28;20478;-78
2022/06/07 11:30:37;;;;;;;8.23;5.80;;;;;;;;;;5086524;28;20040;-78
2022/06/07 11:33:06;;;;;;;7.37;5.87;;;;;;;;;;5086921;28;20059;-78
2022/06/07 11:35:48;;;;;;;8.20;6.07;;;;;;;;;;5086296;28;20390;-78
2022/06/07 11:38:21;;;;;;;8.73;5.90;;;;;;;;;;5086377;28;20039;-79
2022/06/07 11:40:49;;;;;;;5.93;5.00;;;;;;;;;;5091898;28;20031;-78
2022/06/07 11:43:34;;;;;;;6.73;5.13;;;;;;;;;;5092129;28;20479;-78
2022/06/07 11:46:00;;;;;;;13.50;6.55;;;;;;;;;;5092215;28;20032;-76
2022/06/07 11:48:36;;;;;;;9.93;6.00;;;;;;;;;;5092213;28;20052;-77
2022/06/07 11:51:22;;;;;;;9.87;6.40;;;;;;;;;;5090598;28;20213;-77
2022/06/07 11:53:48;;;;;;;;;;;;;;;;;;5086569;28;20028;-78
2022/06/07 11:56:29;;;;;;;10.70;6.53;;;;;;;;;;5086472;28;19979;-78
2022/06/07 11:59:05;;;;;;;8.87;5.73;;;;;;;;;;5086478;28;20530;-78
2022/06/07 12:01:36;;;;;;;7.30;5.83;;;;;;;;;;5086123;28;20016;-77
2022/06/07 12:04:21;;;;;;;8.97;6.33;;;;;;;;;;5091275;28;20526;-78
2022/06/07 12:06:48;;;;;;;10.40;7.00;;;;;;;;;;5092142;28;20064;-78
2022/06/07 12:09:17;;;;;;;14.40;7.57;;;;;;;;;;5091904;28;20016;-77
2022/06/07 12:11:44;;;;;;;8.70;6.03;;;;;;;;;;5093140;28;20484;-77
2022/06/07 12:14:20;;;;;;;11.07;6.30;;;;;;;;;;5092543;28;20028;-77
2022/06/07 12:16:55;;;;;;;12.50;6.30;;;;;;;;;;5090360;28;20044;-77
2022/06/07 12:19:22;;;;;;;12.53;6.10;;;;;;;;;;5089998;28;20020;-78
2022/06/07 12:22:08;;;;;;;7.90;5.50;;;;;;;;;;5090226;28;20035;-77
2022/06/07 12:24:42;;;;;;;7.60;5.97;;;;;;;;;;5075920;28;20028;-77
2022/06/07 12:27:14;;;;;;;6.60;5.00;;;;;;;;;;5095270;28;20500;-77
2022/06/07 12:29:44;;;;;;;13.23;7.00;;;;;;;;;;5095325;28;20032;-77
2022/06/07 12:32:28;;;;;;;10.53;5.80;;;;;;;;;;5095198;28;20034;-78
2022/06/07 12:35:13;;;;;;;9.63;5.93;;;;;;;;;;5095591;28;20032;-77
2022/06/07 12:37:40;;;;;;;10.80;6.50;;;;;;;;;;5089622;28;20039;-78
2022/06/07 12:40:21;;;;;;;8.83;6.27;;;;;;;;;;5089637;28;20020;-78
2022/06/07 12:42:48;;;;;;;12.47;8.17;;;;;;;;;;5089416;28;20028;-77
2022/06/07 12:45:27;;;;;;;8.53;6.80;;;;;;;;;;5089470;28;20116;-78
2022/06/07 12:48:02;;;;;;;9.17;6.30;;;;;;;;;;5095077;28;20073;-77
2022/06/07 12:50:28;;;;;;;;;;;;;;;;;;5095754;28;20037;-77
2022/06/07 12:52:56;;;;;;;8.57;6.50;;;;;;;;;;5094601;28;19904;-78
2022/06/07 12:55:29;;;;;;;9.43;6.90;;;;;;;;;;5094714;28;20348;-77
2022/06/07 12:58:04;;;;;;;9.37;7.40;;;;;;;;;;5093448;28;20039;-77
2022/06/07 13:00:34;;;;;;;13.82;8.02;;;;;;;;;;5089249;28;20031;-77
2022/06/07 13:03:04;;;;;;;11.73;6.93;;;;;;;;;;5089341;28;20020;-76
2022/06/07 13:05:35;;;;;;;9.27;6.87;;;;;;;;;;5089024;28;20501;-77
2022/06/07 13:08:03;;;;;;;9.93;6.70;;;;;;;;;;5089363;28;20032;-77
2022/06/07 13:10:34;;;;;;;12.30;7.17;;;;;;;;;;5094602;28;20089;-77
2022/06/07 13:13:09;;;;;;;9.00;7.03;;;;;;;;;;5094809;28;20020;-77
2022/06/07 13:15:37;;;;;;;10.77;6.87;;;;;;;;;;5076523;28;20028;-77
2022/06/07 13:18:16;;;;;;;10.07;6.57;;;;;;;;;;5094087;28;20028;-77
2022/06/07 13:20:47;;;;;;;9.73;6.73;;;;;;;;;;5092158;28;20036;-77
2022/06/07 13:23:33;;;;;;;11.43;7.43;;;;;;;;;;5088434;28;20028;-77
2022/06/07 13:26:12;;;;;;;12.50;6.73;;;;;;;;;;5088568;28;20024;-77
2022/06/07 13:28:39;;;;;;;12.83;7.90;;;;;;;;;;5088950;28;20107;-77
2022/06/07 13:31:25;;;;;;;14.60;9.03;;;;;;;;;;5091401;28;20371;-77
2022/06/07 13:34:03;;;;;;;14.10;9.13;;;;;;;;;;5094084;28;20020;-78
2022/06/07 13:36:32;;;;;;;13.70;8.40;;;;;;;;;;5094381;28;20100;-77
2022/06/07 13:38:59;;;;;;;13.70;9.30;;;;;;;;;;5093866;28;20031;-75
2022/06/07 13:41:28;;;;;;;15.50;9.90;;;;;;;;;;5094196;28;20445;-75
2022/06/07 13:44:00;;;;;;;17.43;10.87;;;;;;;;;;5090107;28;20088;-75
2022/06/07 13:46:45;;;;;;;14.63;10.27;;;;;;;;;;5088393;28;20099;-75
2022/06/07 13:54:59;;;;;;;11.10;7.13;;;;;;;;;;5093607;28;20046;-75
2022/06/07 13:57:25;;;;;;;9.80;5.57;;;;;;;;;;5094224;28;20038;-76
2022/06/07 13:59:52;;;;;;;9.93;5.63;;;;;;;;;;5076422;28;20379;-76
2022/06/07 14:02:19;;;;;;;11.30;5.63;;;;;;;;;;5094254;28;20024;-76
2022/06/07 14:04:46;;;;;;;7.50;5.37;;;;;;;;;;5092520;28;20047;-75
2022/06/07 14:07:13;;;;;;;9.00;4.70;;;;;;;;;;5088018;28;20115;-76
2022/06/07 14:09:41;;;;;;;10.73;6.20;;;;;;;;;;5087776;28;20039;-76
2022/06/07 14:12:08;;;;;;;9.53;6.17;;;;;;;;;;5088306;28;20517;-76
2022/06/07 14:14:35;;;;;;;6.60;5.63;;;;;;;;;;5088023;28;20053;-76
2022/06/07 14:17:19;;;;;;;9.63;5.50;;;;;;;;;;5093795;28;20033;-76
2022/06/07 14:19:49;;;;;;;6.53;5.00;;;;;;;;;;5093828;28;20107;-76
2022/06/07 14:22:21;;;;;;;7.77;5.73;;;;;;;;;;5093705;28;20403;-76
2022/06/07 14:24:48;;;;;;;8.33;5.20;;;;;;;;;;5094610;28;20027;-76
2022/06/07 14:27:16;;;;;;;11.83;7.43;;;;;;;;;;5093028;28;20020;-75
2022/06/07 14:29:43;;;;;;;18.43;10.00;;;;;;;;;;5089442;28;20473;-76
2022/06/07 14:32:17;;;;;;;18.17;10.10;;;;;;;;;;5090928;28;20031;-77
2022/06/07 14:34:44;;;;;;;16.55;9.98;;;;;;;;;;5093200;28;20035;-77
2022/06/07 14:37:12;;;;;;;16.47;11.70;;;;;;;;;;5092681;28;21198;-76
2022/06/07 14:39:40;;;;;;;14.50;9.40;;;;;;;;;;5094551;28;20359;-76
2022/06/07 14:42:07;;;;;;;11.77;7.27;;;;;;;;;;5094012;28;20016;-76
2022/06/07 14:44:33;;;;;;;8.50;6.73;;;;;;;;;;5092801;28;20491;-76
2022/06/07 14:47:00;;;;;;;9.40;5.90;;;;;;;;;;5094615;28;20103;-75
2022/06/07 14:49:37;;;;;;;11.40;6.87;;;;;;;;;;5095186;28;20844;-76
2022/06/07 14:52:05;;;;;;;13.07;7.73;;;;;;;;;;5071436;28;20016;-76
2022/06/07 14:54:33;;;;;;;11.57;7.00;;;;;;;;;;5089653;28;20062;-76
2022/06/07 14:57:00;;;;;;;9.40;6.53;;;;;;;;;;5090345;28;20064;-77
2022/06/07 14:59:28;;;;;;;12.87;8.30;;;;;;;;;;5089834;28;20032;-77
2022/06/07 15:01:57;;;;;;;10.47;6.80;;;;;;;;;;5089501;28;20027;-77
2022/06/07 15:04:29;;;;;;;12.87;7.17;;;;;;;;;;5093415;28;20412;-77
2022/06/07 15:06:56;;;;;;;10.77;7.17;;;;;;;;;;5075249;28;20533;-77
2022/06/07 15:09:26;;;;;;;11.50;6.67;;;;;;;;;;5093183;28;20043;-77
2022/06/07 15:11:53;;;;;;;13.50;7.10;;;;;;;;;;5092524;28;20039;-77
2022/06/07 15:14:20;;;;;;;11.50;7.57;;;;;;;;;;5092289;28;20020;-77
2022/06/07 15:16:48;;;;;;;9.87;6.77;;;;;;;;;;5088035;28;20493;-76
2022/06/07 15:19:17;;;;;;;11.03;7.27;;;;;;;;;;5088028;28;20527;-77
2022/06/07 15:21:47;;;;;;;10.87;6.00;;;;;;;;;;5087461;28;20052;-77
2022/06/07 15:24:14;;;;;;;10.57;6.37;;;;;;;;;;5087607;28;20028;-76
2022/06/07 15:26:41;;;;;;;9.00;5.20;;;;;;;;;;5090109;28;20379;-76
2022/06/07 15:29:08;;;;;;;12.70;7.13;;;;;;;;;;5092909;28;20024;-76